aviador You're here:

GMTA Decoded Metar

AL HOCIEMA in MOROCCO
Report Time2017-09-24 12:00:00
UTC Time2017-09-24 12:10:48
Flight Rules vfr VFR
Wind360° at 08 kt
W.Decomp.*RWY 35: 7.9 kt HW 1.5 kt RCW
Visibility8000 m
Phenomena:N/A
Clouds:Few 020 Hf
Expected CloudBase > 1,600 ft AGL from Temp-Dew spread
CeilingNone
Temp26°C (ISA +11)
Dew Point22°C (79% RH)
QNH1020 hPa
Density Alt1,440 ft
Elevation46 ft
Report Wrong Elevation
Raw Report
METAR GMTA 241200Z 36008KT 8000 FEW020 26/22 Q1020 NOSIG=

Extra information for GMTA:More info

Metar Taf Metar & Taf Last 4 Metars F.Rules Stats Wind Profile Meteogram Temp Stats Airport Information Weather charts Add Link Nearby VenuesMetar ALERT Operation Metar Decoded Social comments